createdAt,value
2022-12-25T00:03:19.289Z,98725.69
2022-12-25T00:08:41.219Z,98730.66
2022-12-25T00:14:03.006Z,98727.91
2022-12-25T00:19:24.716Z,98740.97
2022-12-25T00:24:49.992Z,98734.03
2022-12-25T00:30:11.953Z,98726.94
2022-12-25T00:35:33.644Z,98720.63
2022-12-25T00:40:55.415Z,98719.16
2022-12-25T00:46:17.241Z,98725.09
2022-12-25T00:51:39.442Z,98734.94
2022-12-25T00:57:01.677Z,98731.47
2022-12-25T01:02:23.529Z,98732.06
2022-12-25T01:07:45.367Z,98727.09
2022-12-25T01:13:08.145Z,98729.91
2022-12-25T01:18:29.887Z,98724.38
2022-12-25T01:23:53.060Z,98736.34
2022-12-25T01:29:14.753Z,98737.13
2022-12-25T01:34:36.709Z,98746.69
2022-12-25T01:39:58.475Z,98752.78
2022-12-25T01:45:40.484Z,98757.13
2022-12-25T01:51:10.632Z,98765.13
2022-12-25T01:56:34.586Z,98752.19
2022-12-25T02:01:57.508Z,98749.28
2022-12-25T02:07:21.583Z,98745.78
2022-12-25T02:12:45.103Z,98742.13
2022-12-25T02:18:35.928Z,98742.47
2022-12-25T02:24:28.039Z,98743.19
2022-12-25T02:30:07.218Z,98732.00
2022-12-25T02:35:31.407Z,98722.16
2022-12-25T02:40:57.897Z,98735.34
2022-12-25T02:46:42.436Z,98734.03
2022-12-25T02:52:32.129Z,98728.81
2022-12-25T02:58:16.254Z,98732.50
2022-12-25T03:03:59.430Z,98734.56
2022-12-25T03:09:47.107Z,98730.66
2022-12-25T03:15:28.989Z,98722.47
2022-12-25T03:21:11.762Z,98715.88
2022-12-25T03:26:52.529Z,98711.47
2022-12-25T03:32:32.808Z,98705.66
2022-12-25T03:38:32.991Z,98702.53
2022-12-25T03:44:20.717Z,98690.31
2022-12-25T03:50:26.880Z,98682.16
2022-12-25T03:56:08.766Z,98684.31
2022-12-25T04:01:49.336Z,98680.03
2022-12-25T04:07:30.122Z,98676.50
2022-12-25T04:13:11.025Z,98679.59
2022-12-25T04:19:11.390Z,98680.41
2022-12-25T04:24:51.614Z,98672.69
2022-12-25T04:30:31.824Z,98657.38
2022-12-25T04:36:12.249Z,98666.69
2022-12-25T04:41:34.001Z,98669.06
2022-12-25T04:46:55.733Z,98665.25
2022-12-25T04:52:17.628Z,98670.47
2022-12-25T04:57:39.458Z,98662.25
2022-12-25T05:03:01.330Z,98651.34
2022-12-25T05:08:23.401Z,98652.78
2022-12-25T05:13:45.133Z,98645.72
2022-12-25T05:19:07.193Z,98630.59
2022-12-25T05:24:29.010Z,98642.88
2022-12-25T05:29:50.736Z,98638.47
2022-12-25T05:35:12.507Z,98637.81
2022-12-25T05:40:34.959Z,98639.00
2022-12-25T05:45:56.889Z,98631.56
2022-12-25T05:51:18.668Z,98617.97
2022-12-25T05:56:41.454Z,98611.41
2022-12-25T06:02:03.280Z,98608.69
2022-12-25T06:07:25.117Z,98601.88
2022-12-25T06:12:46.862Z,98606.44
2022-12-25T06:18:09.047Z,98599.44
2022-12-25T06:23:30.882Z,98596.28
2022-12-25T06:28:53.180Z,98600.78
2022-12-25T06:34:16.529Z,98591.97
2022-12-25T06:39:38.357Z,98591.03
2022-12-25T06:45:00.110Z,98593.91
2022-12-25T06:50:21.901Z,98591.69
2022-12-25T06:55:43.643Z,98601.28
2022-12-25T07:01:15.459Z,98605.97
2022-12-25T07:06:37.530Z,98594.41
2022-12-25T07:12:08.370Z,98603.13
2022-12-25T07:17:30.381Z,98616.19
2022-12-25T07:22:52.110Z,98610.56
2022-12-25T07:28:13.869Z,98606.44
2022-12-25T07:33:36.153Z,98598.88
2022-12-25T07:38:57.985Z,98586.16
2022-12-25T07:44:19.723Z,98576.38
2022-12-25T07:49:41.882Z,98554.97
2022-12-25T07:55:03.733Z,98543.97
2022-12-25T08:00:29.633Z,98546.41
2022-12-25T08:05:51.436Z,98568.66
2022-12-25T08:11:13.396Z,98583.69
2022-12-25T08:16:35.561Z,98593.56
2022-12-25T08:21:57.451Z,98596.59
2022-12-25T08:27:19.170Z,98594.56
2022-12-25T08:32:41.734Z,98587.06
2022-12-25T08:38:03.477Z,98588.78
2022-12-25T08:43:25.215Z,98599.72
2022-12-25T08:48:48.312Z,98604.16
2022-12-25T08:54:10.635Z,98598.88
2022-12-25T08:59:32.430Z,98594.03
2022-12-25T09:04:54.176Z,98571.31
2022-12-25T09:10:16.173Z,98541.94
2022-12-25T09:15:39.126Z,98530.75
2022-12-25T09:21:02.886Z,98536.88
2022-12-25T09:26:24.803Z,98548.59
2022-12-25T09:31:46.608Z,98552.81
2022-12-25T09:37:08.457Z,98556.25
2022-12-25T09:42:32.372Z,98554.84
2022-12-25T09:47:57.429Z,98560.06
2022-12-25T09:53:23.129Z,98558.34
2022-12-25T09:58:45.163Z,98550.38
2022-12-25T10:04:33.661Z,98562.94
2022-12-25T10:10:17.661Z,98551.09
2022-12-25T10:15:59.219Z,98535.84
2022-12-25T10:21:23.381Z,98516.38
2022-12-25T10:26:45.378Z,98521.06
2022-12-25T10:32:10.212Z,98513.19
2022-12-25T10:37:32.017Z,98501.44
2022-12-25T10:43:12.492Z,98474.38
2022-12-25T10:48:34.429Z,98473.44
2022-12-25T10:53:56.957Z,98465.97
2022-12-25T10:59:18.713Z,98459.50
2022-12-25T11:04:40.838Z,98447.38
2022-12-25T11:10:20.069Z,98444.84
2022-12-25T11:15:48.271Z,98432.13
2022-12-25T11:21:25.772Z,98431.75
2022-12-25T11:26:52.859Z,98433.03
2022-12-25T11:32:27.896Z,98418.47
2022-12-25T11:37:52.123Z,98415.88
2022-12-25T11:43:25.010Z,98410.41
2022-12-25T11:48:56.157Z,98401.09
2022-12-25T11:54:24.927Z,98390.97
2022-12-25T12:00:03.967Z,98384.91
2022-12-25T12:05:31.801Z,98380.94
2022-12-25T12:10:56.634Z,98353.38
2022-12-25T12:16:18.646Z,98347.81
2022-12-25T12:21:44.199Z,98336.31
2022-12-25T12:27:13.705Z,98332.47
2022-12-25T12:32:40.533Z,98326.03
2022-12-25T12:38:04.053Z,98332.97
2022-12-25T12:43:34.947Z,98333.81
2022-12-25T12:49:22.980Z,98333.41
2022-12-25T12:54:59.413Z,98332.13
2022-12-25T13:00:21.260Z,98331.06
2022-12-25T13:05:54.229Z,98325.75
2022-12-25T13:11:38.794Z,98319.13
2022-12-25T13:17:00.849Z,98309.78
2022-12-25T13:22:26.088Z,98303.56
2022-12-25T13:27:58.388Z,98313.97
2022-12-25T13:33:20.588Z,98319.31
2022-12-25T13:38:47.822Z,98322.88
2022-12-25T13:44:26.112Z,98314.81
2022-12-25T13:49:49.005Z,98312.81
2022-12-25T13:55:20.696Z,98312.81
2022-12-25T14:00:48.795Z,98309.22
2022-12-25T14:06:28.825Z,98302.09
2022-12-25T14:11:52.614Z,98293.41
2022-12-25T14:17:14.446Z,98295.06
2022-12-25T14:22:38.414Z,98298.41
2022-12-25T14:28:08.452Z,98299.66
2022-12-25T14:33:37.260Z,98298.72
2022-12-25T14:39:01.582Z,98287.50
2022-12-25T14:44:40.917Z,98292.94
2022-12-25T14:50:13.768Z,98296.63
2022-12-25T14:55:35.622Z,98292.44
2022-12-25T15:01:00.417Z,98292.66
2022-12-25T15:06:24.831Z,98299.16
2022-12-25T15:11:51.066Z,98292.16
2022-12-25T15:17:27.921Z,98300.44
2022-12-25T15:23:18.355Z,98304.72
2022-12-25T15:28:31.551Z,98321.66
2022-12-25T15:33:54.544Z,98313.13
2022-12-25T15:39:16.255Z,98303.50
2022-12-25T15:44:39.057Z,98298.97
2022-12-25T15:50:00.911Z,98299.19
2022-12-25T15:55:23.423Z,98301.59
2022-12-25T16:00:45.323Z,98314.94
2022-12-25T16:06:14.264Z,98326.56
2022-12-25T16:11:36.223Z,98325.41
2022-12-25T16:16:58.008Z,98324.03
2022-12-25T16:22:27.475Z,98344.28
2022-12-25T16:27:49.273Z,98348.91
2022-12-25T16:33:11.903Z,98359.00
2022-12-25T16:38:34.037Z,98338.22
2022-12-25T16:43:55.802Z,98343.44
2022-12-25T16:49:17.596Z,98367.16
2022-12-25T16:54:39.353Z,98368.31
2022-12-25T17:00:01.216Z,98380.59
2022-12-25T17:05:24.061Z,98371.66
2022-12-25T17:10:45.884Z,98356.25
2022-12-25T17:16:16.494Z,98352.16
2022-12-25T17:21:38.380Z,98356.38
2022-12-25T17:27:00.323Z,98364.00
2022-12-25T17:32:22.401Z,98365.88
2022-12-25T17:37:44.244Z,98363.97
2022-12-25T17:43:06.078Z,98361.03
2022-12-25T17:48:28.550Z,98382.81
2022-12-25T17:53:53.163Z,98382.81
2022-12-25T17:59:18.643Z,98380.09
2022-12-25T18:04:40.847Z,98388.72
2022-12-25T18:10:02.805Z,98392.38
2022-12-25T18:15:24.606Z,98394.56
2022-12-25T18:20:46.719Z,98402.19
2022-12-25T18:26:11.904Z,98408.56
2022-12-25T18:31:33.786Z,98409.84
2022-12-25T18:37:03.257Z,98415.28
2022-12-25T18:42:39.883Z,98415.38
2022-12-25T18:48:06.160Z,98409.69
2022-12-25T18:53:29.193Z,98405.78
2022-12-25T18:58:50.945Z,98426.28
2022-12-25T19:04:14.683Z,98424.72
2022-12-25T19:09:36.972Z,98425.84
2022-12-25T19:14:58.855Z,98422.31
2022-12-25T19:20:20.708Z,98419.16
2022-12-25T19:25:42.493Z,98426.41
2022-12-25T19:31:07.439Z,98426.13
2022-12-25T19:36:29.702Z,98426.94
2022-12-25T19:41:51.670Z,98424.88
2022-12-25T19:47:13.583Z,98423.00
2022-12-25T19:52:35.409Z,98433.47
2022-12-25T19:57:59.071Z,98430.94
2022-12-25T20:03:20.918Z,98426.00
2022-12-25T20:08:42.695Z,98438.06
2022-12-25T20:14:05.913Z,98445.81
2022-12-25T20:19:27.613Z,98442.00
2022-12-25T20:24:49.467Z,98442.66
2022-12-25T20:30:11.971Z,98440.78
2022-12-25T20:35:33.775Z,98445.59
2022-12-25T20:41:30.033Z,98441.69
2022-12-25T20:46:45.957Z,98450.16
2022-12-25T20:52:07.717Z,98449.78
2022-12-25T20:57:29.476Z,98454.59
2022-12-25T21:02:54.225Z,98458.25
2022-12-25T21:08:17.731Z,98458.31
2022-12-25T21:13:42.013Z,98459.44
2022-12-25T21:19:03.769Z,98457.97
2022-12-25T21:24:25.551Z,98464.06
2022-12-25T21:29:47.313Z,98463.47
2022-12-25T21:35:09.602Z,98458.13
2022-12-25T21:40:34.487Z,98447.94
2022-12-25T21:45:56.264Z,98456.22
2022-12-25T21:51:42.278Z,98459.53
2022-12-25T21:57:04.076Z,98461.25
2022-12-25T22:02:26.198Z,98470.22
2022-12-25T22:07:49.827Z,98466.13
2022-12-25T22:13:30.235Z,98476.72
2022-12-25T22:19:10.756Z,98484.81
2022-12-25T22:24:32.555Z,98488.03
2022-12-25T22:29:54.290Z,98492.31
2022-12-25T22:35:16.689Z,98482.50
2022-12-25T22:40:38.445Z,98488.88
2022-12-25T22:46:03.453Z,98491.47
2022-12-25T22:51:25.272Z,98486.13
2022-12-25T22:56:49.856Z,98491.56
2022-12-25T23:02:11.850Z,98506.84
2022-12-25T23:07:33.767Z,98504.06
2022-12-25T23:13:14.618Z,98517.44
2022-12-25T23:18:54.881Z,98518.69
2022-12-25T23:24:52.017Z,98533.03
2022-12-25T23:30:27.560Z,98544.25
2022-12-25T23:35:49.299Z,98550.69
2022-12-25T23:41:11.089Z,98556.59
2022-12-25T23:46:33.132Z,98560.97
2022-12-25T23:51:55.798Z,98561.06
2022-12-25T23:57:17.484Z,98559.41
